sensor_id;sensor_type;location;lat;lon;timestamp;P1;durP1;ratioP1;P2;durP2;ratioP2
15474;SDS011;7839;50.462;9.678;2024-03-06T00:02:40;1.37;;;1.27;;
15474;SDS011;7839;50.462;9.678;2024-03-06T00:09:20;1.50;;;1.40;;
15474;SDS011;7839;50.462;9.678;2024-03-06T00:16:00;1.60;;;1.50;;
15474;SDS011;7839;50.462;9.678;2024-03-06T00:22:40;1.40;;;1.30;;
15474;SDS011;7839;50.462;9.678;2024-03-06T00:29:21;1.13;;;1.07;;
15474;SDS011;7839;50.462;9.678;2024-03-06T00:36:03;1.40;;;1.30;;
15474;SDS011;7839;50.462;9.678;2024-03-06T00:42:44;1.37;;;1.27;;
15474;SDS011;7839;50.462;9.678;2024-03-06T00:49:25;1.43;;;1.33;;
15474;SDS011;7839;50.462;9.678;2024-03-06T00:56:06;1.37;;;1.20;;
15474;SDS011;7839;50.462;9.678;2024-03-06T01:02:47;1.20;;;1.10;;
15474;SDS011;7839;50.462;9.678;2024-03-06T01:09:27;1.20;;;1.10;;
15474;SDS011;7839;50.462;9.678;2024-03-06T01:16:07;1.47;;;1.37;;
15474;SDS011;7839;50.462;9.678;2024-03-06T01:22:47;1.20;;;1.10;;
15474;SDS011;7839;50.462;9.678;2024-03-06T01:29:28;1.17;;;1.03;;
15474;SDS011;7839;50.462;9.678;2024-03-06T01:36:08;1.10;;;1.00;;
15474;SDS011;7839;50.462;9.678;2024-03-06T01:42:50;1.00;;;0.90;;
15474;SDS011;7839;50.462;9.678;2024-03-06T01:49:31;1.20;;;1.10;;
15474;SDS011;7839;50.462;9.678;2024-03-06T01:56:11;1.00;;;1.00;;
15474;SDS011;7839;50.462;9.678;2024-03-06T02:02:57;1.00;;;1.00;;
15474;SDS011;7839;50.462;9.678;2024-03-06T02:09:37;0.90;;;0.90;;
15474;SDS011;7839;50.462;9.678;2024-03-06T02:16:18;0.90;;;0.90;;
15474;SDS011;7839;50.462;9.678;2024-03-06T02:22:58;0.93;;;0.80;;
15474;SDS011;7839;50.462;9.678;2024-03-06T02:29:38;0.70;;;0.70;;
15474;SDS011;7839;50.462;9.678;2024-03-06T02:36:18;0.60;;;0.60;;
15474;SDS011;7839;50.462;9.678;2024-03-06T02:42:59;0.83;;;0.80;;
15474;SDS011;7839;50.462;9.678;2024-03-06T02:49:39;0.70;;;0.70;;
15474;SDS011;7839;50.462;9.678;2024-03-06T02:56:20;0.80;;;0.80;;
15474;SDS011;7839;50.462;9.678;2024-03-06T03:03:00;15.80;;;11.60;;
15474;SDS011;7839;50.462;9.678;2024-03-06T03:09:40;2.17;;;1.40;;
15474;SDS011;7839;50.462;9.678;2024-03-06T03:16:21;1.23;;;1.13;;
15474;SDS011;7839;50.462;9.678;2024-03-06T03:23:01;1.30;;;1.20;;
15474;SDS011;7839;50.462;9.678;2024-03-06T03:29:41;1.27;;;1.10;;
15474;SDS011;7839;50.462;9.678;2024-03-06T03:36:22;0.90;;;0.90;;
15474;SDS011;7839;50.462;9.678;2024-03-06T03:43:02;1.23;;;1.13;;
15474;SDS011;7839;50.462;9.678;2024-03-06T03:49:46;0.80;;;0.80;;
15474;SDS011;7839;50.462;9.678;2024-03-06T03:56:26;10.63;;;8.87;;
15474;SDS011;7839;50.462;9.678;2024-03-06T04:03:07;1.37;;;1.27;;
15474;SDS011;7839;50.462;9.678;2024-03-06T04:09:47;1.43;;;1.33;;
15474;SDS011;7839;50.462;9.678;2024-03-06T04:16:27;1.07;;;1.00;;
15474;SDS011;7839;50.462;9.678;2024-03-06T04:23:07;0.90;;;0.90;;
15474;SDS011;7839;50.462;9.678;2024-03-06T04:29:48;1.40;;;1.30;;
15474;SDS011;7839;50.462;9.678;2024-03-06T04:36:28;1.00;;;0.80;;
15474;SDS011;7839;50.462;9.678;2024-03-06T04:43:08;1.10;;;1.07;;
15474;SDS011;7839;50.462;9.678;2024-03-06T04:49:48;1.07;;;0.93;;
15474;SDS011;7839;50.462;9.678;2024-03-06T04:56:30;0.90;;;0.90;;
15474;SDS011;7839;50.462;9.678;2024-03-06T05:03:10;1.00;;;1.00;;
15474;SDS011;7839;50.462;9.678;2024-03-06T05:09:50;0.80;;;0.80;;
15474;SDS011;7839;50.462;9.678;2024-03-06T05:16:30;16.37;;;13.30;;
15474;SDS011;7839;50.462;9.678;2024-03-06T05:23:10;16.00;;;12.40;;
15474;SDS011;7839;50.462;9.678;2024-03-06T05:29:50;18.00;;;14.23;;
15474;SDS011;7839;50.462;9.678;2024-03-06T05:36:31;20.93;;;14.57;;
15474;SDS011;7839;50.462;9.678;2024-03-06T05:43:11;21.70;;;14.77;;
15474;SDS011;7839;50.462;9.678;2024-03-06T05:49:52;23.97;;;15.43;;
15474;SDS011;7839;50.462;9.678;2024-03-06T05:56:32;20.60;;;16.30;;
15474;SDS011;7839;50.462;9.678;2024-03-06T06:03:12;21.10;;;16.83;;
15474;SDS011;7839;50.462;9.678;2024-03-06T06:09:52;26.83;;;17.97;;
15474;SDS011;7839;50.462;9.678;2024-03-06T06:16:39;26.47;;;17.97;;
15474;SDS011;7839;50.462;9.678;2024-03-06T06:23:20;31.50;;;20.47;;
15474;SDS011;7839;50.462;9.678;2024-03-06T06:30:01;32.73;;;21.53;;
15474;SDS011;7839;50.462;9.678;2024-03-06T06:36:44;28.87;;;18.90;;
15474;SDS011;7839;50.462;9.678;2024-03-06T06:43:25;14.13;;;10.70;;
15474;SDS011;7839;50.462;9.678;2024-03-06T06:50:05;24.20;;;17.13;;
15474;SDS011;7839;50.462;9.678;2024-03-06T06:56:45;23.73;;;16.13;;
15474;SDS011;7839;50.462;9.678;2024-03-06T07:03:25;24.70;;;16.70;;
15474;SDS011;7839;50.462;9.678;2024-03-06T07:10:09;25.90;;;17.93;;
15474;SDS011;7839;50.462;9.678;2024-03-06T07:16:49;26.57;;;17.80;;
15474;SDS011;7839;50.462;9.678;2024-03-06T07:23:30;31.47;;;19.13;;
15474;SDS011;7839;50.462;9.678;2024-03-06T07:30:10;40.97;;;24.90;;
15474;SDS011;7839;50.462;9.678;2024-03-06T07:36:51;46.60;;;27.20;;
15474;SDS011;7839;50.462;9.678;2024-03-06T07:43:31;50.30;;;28.83;;
15474;SDS011;7839;50.462;9.678;2024-03-06T07:50:11;45.87;;;28.23;;
15474;SDS011;7839;50.462;9.678;2024-03-06T07:56:52;43.23;;;26.33;;
15474;SDS011;7839;50.462;9.678;2024-03-06T08:03:33;37.13;;;23.57;;
15474;SDS011;7839;50.462;9.678;2024-03-06T08:10:14;35.13;;;24.03;;
15474;SDS011;7839;50.462;9.678;2024-03-06T08:16:54;35.00;;;23.63;;
15474;SDS011;7839;50.462;9.678;2024-03-06T08:23:35;25.17;;;18.20;;
15474;SDS011;7839;50.462;9.678;2024-03-06T08:30:15;24.60;;;17.93;;
15474;SDS011;7839;50.462;9.678;2024-03-06T08:36:56;24.93;;;18.30;;
15474;SDS011;7839;50.462;9.678;2024-03-06T08:43:36;23.98;;;18.92;;
15474;SDS011;7839;50.462;9.678;2024-03-06T08:50:16;26.10;;;19.90;;
15474;SDS011;7839;50.462;9.678;2024-03-06T08:56:56;28.33;;;21.47;;
15474;SDS011;7839;50.462;9.678;2024-03-06T09:03:39;28.77;;;21.73;;
15474;SDS011;7839;50.462;9.678;2024-03-06T09:10:19;31.07;;;21.67;;
15474;SDS011;7839;50.462;9.678;2024-03-06T09:16:59;29.03;;;21.10;;
15474;SDS011;7839;50.462;9.678;2024-03-06T09:23:39;31.30;;;21.87;;
15474;SDS011;7839;50.462;9.678;2024-03-06T09:30:20;31.47;;;21.47;;
15474;SDS011;7839;50.462;9.678;2024-03-06T09:37:00;29.60;;;20.93;;
15474;SDS011;7839;50.462;9.678;2024-03-06T09:43:40;31.93;;;22.63;;
15474;SDS011;7839;50.462;9.678;2024-03-06T09:50:24;33.17;;;22.47;;
15474;SDS011;7839;50.462;9.678;2024-03-06T09:57:06;27.63;;;18.73;;
15474;SDS011;7839;50.462;9.678;2024-03-06T10:03:46;28.13;;;20.70;;
15474;SDS011;7839;50.462;9.678;2024-03-06T10:10:27;30.37;;;22.50;;
15474;SDS011;7839;50.462;9.678;2024-03-06T10:17:07;32.63;;;23.53;;
15474;SDS011;7839;50.462;9.678;2024-03-06T10:23:47;32.90;;;22.27;;
15474;SDS011;7839;50.462;9.678;2024-03-06T10:30:28;33.57;;;24.00;;
15474;SDS011;7839;50.462;9.678;2024-03-06T10:37:08;32.53;;;23.70;;
15474;SDS011;7839;50.462;9.678;2024-03-06T10:43:48;28.07;;;21.50;;
15474;SDS011;7839;50.462;9.678;2024-03-06T10:50:30;30.00;;;20.90;;
15474;SDS011;7839;50.462;9.678;2024-03-06T10:57:10;29.30;;;22.23;;
15474;SDS011;7839;50.462;9.678;2024-03-06T11:03:51;26.73;;;19.87;;
15474;SDS011;7839;50.462;9.678;2024-03-06T11:10:35;29.43;;;21.43;;
15474;SDS011;7839;50.462;9.678;2024-03-06T11:17:15;24.83;;;19.90;;
15474;SDS011;7839;50.462;9.678;2024-03-06T11:37:34;23.20;;;17.87;;
15474;SDS011;7839;50.462;9.678;2024-03-06T11:44:19;24.80;;;19.20;;
15474;SDS011;7839;50.462;9.678;2024-03-06T11:51:04;25.60;;;18.57;;
15474;SDS011;7839;50.462;9.678;2024-03-06T11:57:46;27.77;;;19.97;;
15474;SDS011;7839;50.462;9.678;2024-03-06T12:04:26;28.30;;;20.13;;
15474;SDS011;7839;50.462;9.678;2024-03-06T12:11:06;23.63;;;18.07;;
15474;SDS011;7839;50.462;9.678;2024-03-06T12:17:48;29.27;;;22.33;;
15474;SDS011;7839;50.462;9.678;2024-03-06T12:24:30;30.37;;;21.37;;
15474;SDS011;7839;50.462;9.678;2024-03-06T12:31:11;31.40;;;23.50;;
15474;SDS011;7839;50.462;9.678;2024-03-06T12:37:52;30.17;;;22.77;;
15474;SDS011;7839;50.462;9.678;2024-03-06T12:44:32;30.60;;;22.13;;
15474;SDS011;7839;50.462;9.678;2024-03-06T12:51:13;30.00;;;21.17;;
15474;SDS011;7839;50.462;9.678;2024-03-06T12:57:53;25.10;;;20.20;;
15474;SDS011;7839;50.462;9.678;2024-03-06T13:04:33;29.23;;;18.67;;
15474;SDS011;7839;50.462;9.678;2024-03-06T13:11:13;23.67;;;18.00;;
15474;SDS011;7839;50.462;9.678;2024-03-06T13:17:54;23.27;;;17.83;;
15474;SDS011;7839;50.462;9.678;2024-03-06T13:24:34;23.70;;;17.80;;
15474;SDS011;7839;50.462;9.678;2024-03-06T13:31:15;21.40;;;16.77;;
15474;SDS011;7839;50.462;9.678;2024-03-06T13:37:55;23.10;;;17.67;;
15474;SDS011;7839;50.462;9.678;2024-03-06T13:44:35;25.70;;;19.50;;
15474;SDS011;7839;50.462;9.678;2024-03-06T13:51:16;31.63;;;23.93;;
15474;SDS011;7839;50.462;9.678;2024-03-06T13:57:56;33.23;;;25.17;;
15474;SDS011;7839;50.462;9.678;2024-03-06T14:04:36;35.97;;;23.30;;
15474;SDS011;7839;50.462;9.678;2024-03-06T14:11:16;31.97;;;22.43;;
15474;SDS011;7839;50.462;9.678;2024-03-06T14:17:58;30.00;;;21.00;;
15474;SDS011;7839;50.462;9.678;2024-03-06T14:24:38;27.37;;;20.37;;
15474;SDS011;7839;50.462;9.678;2024-03-06T14:31:19;24.80;;;17.80;;
15474;SDS011;7839;50.462;9.678;2024-03-06T14:37:59;33.93;;;22.97;;
15474;SDS011;7839;50.462;9.678;2024-03-06T14:44:40;34.47;;;21.83;;
15474;SDS011;7839;50.462;9.678;2024-03-06T14:51:20;32.37;;;22.33;;
15474;SDS011;7839;50.462;9.678;2024-03-06T14:58:00;30.77;;;22.53;;
15474;SDS011;7839;50.462;9.678;2024-03-06T15:04:40;33.50;;;23.90;;
15474;SDS011;7839;50.462;9.678;2024-03-06T15:11:20;34.03;;;25.70;;
15474;SDS011;7839;50.462;9.678;2024-03-06T15:18:03;31.47;;;22.90;;
15474;SDS011;7839;50.462;9.678;2024-03-06T15:24:43;34.07;;;25.60;;
15474;SDS011;7839;50.462;9.678;2024-03-06T15:31:29;36.00;;;27.20;;
15474;SDS011;7839;50.462;9.678;2024-03-06T15:38:09;35.65;;;27.30;;
15474;SDS011;7839;50.462;9.678;2024-03-06T15:44:50;37.53;;;27.30;;
15474;SDS011;7839;50.462;9.678;2024-03-06T15:51:30;35.03;;;27.43;;
15474;SDS011;7839;50.462;9.678;2024-03-06T15:58:10;32.23;;;25.53;;
15474;SDS011;7839;50.462;9.678;2024-03-06T16:04:50;36.63;;;26.57;;
15474;SDS011;7839;50.462;9.678;2024-03-06T16:11:31;36.47;;;25.37;;
15474;SDS011;7839;50.462;9.678;2024-03-06T16:18:11;34.90;;;26.07;;
15474;SDS011;7839;50.462;9.678;2024-03-06T16:24:51;34.73;;;25.20;;
15474;SDS011;7839;50.462;9.678;2024-03-06T16:31:31;33.50;;;25.00;;
15474;SDS011;7839;50.462;9.678;2024-03-06T16:38:12;33.13;;;23.57;;
15474;SDS011;7839;50.462;9.678;2024-03-06T16:44:52;33.60;;;23.50;;
15474;SDS011;7839;50.462;9.678;2024-03-06T16:51:32;33.10;;;23.77;;
15474;SDS011;7839;50.462;9.678;2024-03-06T16:58:13;32.50;;;23.40;;
15474;SDS011;7839;50.462;9.678;2024-03-06T17:04:53;29.67;;;23.53;;
15474;SDS011;7839;50.462;9.678;2024-03-06T17:11:33;33.20;;;23.23;;
15474;SDS011;7839;50.462;9.678;2024-03-06T17:18:13;28.93;;;23.00;;
15474;SDS011;7839;50.462;9.678;2024-03-06T17:24:53;31.63;;;22.63;;
15474;SDS011;7839;50.462;9.678;2024-03-06T17:31:34;31.80;;;23.83;;
15474;SDS011;7839;50.462;9.678;2024-03-06T17:38:17;30.07;;;23.60;;
15474;SDS011;7839;50.462;9.678;2024-03-06T17:44:57;29.33;;;22.70;;
15474;SDS011;7839;50.462;9.678;2024-03-06T17:51:37;27.67;;;22.00;;
15474;SDS011;7839;50.462;9.678;2024-03-06T17:58:19;27.83;;;21.20;;
15474;SDS011;7839;50.462;9.678;2024-03-06T18:04:59;28.73;;;20.90;;
15474;SDS011;7839;50.462;9.678;2024-03-06T18:11:39;29.20;;;21.23;;
15474;SDS011;7839;50.462;9.678;2024-03-06T18:18:19;26.40;;;21.17;;
15474;SDS011;7839;50.462;9.678;2024-03-06T18:25:00;29.63;;;21.53;;
15474;SDS011;7839;50.462;9.678;2024-03-06T18:31:43;28.43;;;20.67;;
15474;SDS011;7839;50.462;9.678;2024-03-06T18:38:23;28.27;;;21.27;;
15474;SDS011;7839;50.462;9.678;2024-03-06T18:45:04;25.13;;;20.47;;
15474;SDS011;7839;50.462;9.678;2024-03-06T18:51:48;28.53;;;21.07;;
15474;SDS011;7839;50.462;9.678;2024-03-06T18:58:31;24.27;;;20.10;;
15474;SDS011;7839;50.462;9.678;2024-03-06T19:05:12;27.67;;;21.83;;
15474;SDS011;7839;50.462;9.678;2024-03-06T19:11:52;24.63;;;19.80;;
15474;SDS011;7839;50.462;9.678;2024-03-06T19:18:32;25.03;;;20.47;;
15474;SDS011;7839;50.462;9.678;2024-03-06T19:25:13;26.70;;;20.07;;
15474;SDS011;7839;50.462;9.678;2024-03-06T19:31:53;23.00;;;18.97;;
15474;SDS011;7839;50.462;9.678;2024-03-06T19:38:33;27.93;;;20.57;;
15474;SDS011;7839;50.462;9.678;2024-03-06T19:45:13;25.07;;;19.13;;
15474;SDS011;7839;50.462;9.678;2024-03-06T19:51:53;24.80;;;18.53;;
15474;SDS011;7839;50.462;9.678;2024-03-06T19:58:34;20.77;;;16.73;;
15474;SDS011;7839;50.462;9.678;2024-03-06T20:05:14;24.03;;;16.73;;
15474;SDS011;7839;50.462;9.678;2024-03-06T20:11:54;19.43;;;16.43;;
15474;SDS011;7839;50.462;9.678;2024-03-06T20:18:34;22.13;;;16.17;;
15474;SDS011;7839;50.462;9.678;2024-03-06T20:25:15;21.77;;;16.93;;
15474;SDS011;7839;50.462;9.678;2024-03-06T20:31:56;17.40;;;14.03;;
15474;SDS011;7839;50.462;9.678;2024-03-06T20:38:36;20.20;;;16.00;;
15474;SDS011;7839;50.462;9.678;2024-03-06T20:45:16;20.17;;;16.17;;
15474;SDS011;7839;50.462;9.678;2024-03-06T20:51:57;16.33;;;14.13;;
15474;SDS011;7839;50.462;9.678;2024-03-06T20:58:38;16.93;;;13.57;;
15474;SDS011;7839;50.462;9.678;2024-03-06T21:05:18;21.73;;;16.50;;
15474;SDS011;7839;50.462;9.678;2024-03-06T21:11:59;18.40;;;15.67;;
15474;SDS011;7839;50.462;9.678;2024-03-06T21:18:39;10.67;;;9.57;;
15474;SDS011;7839;50.462;9.678;2024-03-06T21:25:20;10.97;;;8.60;;
15474;SDS011;7839;50.462;9.678;2024-03-06T21:32:00;9.23;;;8.30;;
15474;SDS011;7839;50.462;9.678;2024-03-06T21:38:40;7.70;;;6.97;;
15474;SDS011;7839;50.462;9.678;2024-03-06T21:45:20;7.33;;;6.63;;
15474;SDS011;7839;50.462;9.678;2024-03-06T21:52:03;20.73;;;15.70;;
15474;SDS011;7839;50.462;9.678;2024-03-06T21:58:43;17.93;;;16.03;;
15474;SDS011;7839;50.462;9.678;2024-03-06T22:05:24;21.25;;;17.25;;
15474;SDS011;7839;50.462;9.678;2024-03-06T22:12:04;7.63;;;6.93;;
15474;SDS011;7839;50.462;9.678;2024-03-06T22:18:44;6.67;;;6.00;;
15474;SDS011;7839;50.462;9.678;2024-03-06T22:25:25;6.28;;;5.68;;
15474;SDS011;7839;50.462;9.678;2024-03-06T22:32:05;5.70;;;5.20;;
15474;SDS011;7839;50.462;9.678;2024-03-06T22:38:45;4.90;;;4.50;;
15474;SDS011;7839;50.462;9.678;2024-03-06T22:45:25;6.03;;;4.60;;
15474;SDS011;7839;50.462;9.678;2024-03-06T22:52:06;4.30;;;4.00;;
15474;SDS011;7839;50.462;9.678;2024-03-06T22:58:46;4.17;;;3.70;;
15474;SDS011;7839;50.462;9.678;2024-03-06T23:05:30;12.93;;;11.23;;
15474;SDS011;7839;50.462;9.678;2024-03-06T23:12:10;18.27;;;14.83;;
15474;SDS011;7839;50.462;9.678;2024-03-06T23:18:50;4.07;;;3.77;;
15474;SDS011;7839;50.462;9.678;2024-03-06T23:25:31;4.33;;;3.93;;
15474;SDS011;7839;50.462;9.678;2024-03-06T23:32:12;3.40;;;3.20;;
15474;SDS011;7839;50.462;9.678;2024-03-06T23:38:52;4.17;;;3.83;;
15474;SDS011;7839;50.462;9.678;2024-03-06T23:45:33;3.33;;;3.03;;
15474;SDS011;7839;50.462;9.678;2024-03-06T23:52:13;3.90;;;3.20;;
15474;SDS011;7839;50.462;9.678;2024-03-06T23:58:57;2.90;;;2.70;;
